DAL963 KCHS-KMSP
Flight info
| Callsign | DAL963 |
|---|---|
| Flight time | 2h 37m |
| Altitude | 36000 |
| Route | MLTRE3 VANNC SPA CUBIM FLM OBK MSN DLL HENDR KKILR4 |
| Aircraft | A320/M-SDE3FGHIRWY/LB1 |
Departure
| Time | 2026-04-22 16:10 |
|---|---|
| Airport | Charleston International Airport (KCHS) |
Arrival
| Time | 2026-04-22 18:47 |
|---|---|
| Airport | Minneapolis–Saint Paul International Airport / Wold–Chamberlain Field (KMSP) |
| Time | Latitude | Longitude | Altitude | Speed | Heading |
|---|---|---|---|---|---|
| 2026-04-22 15:14 | 32.88548 | -80.03541 | 41 ft | 0 kts | 256° |
| 2026-04-22 15:55 | 32.88552 | -80.03520 | 39 ft | 4 kts | 256° |
| 2026-04-22 15:55 | 32.88559 | -80.03488 | 41 ft | 4 kts | 256° |
| 2026-04-22 15:55 | 32.88564 | -80.03463 | 39 ft | 4 kts | 276° |
| 2026-04-22 15:55 | 32.88552 | -80.03445 | 41 ft | 4 kts | 355° |
| 2026-04-22 15:56 | 32.88526 | -80.03446 | 41 ft | 4 kts | 9° |
| 2026-04-22 15:56 | 32.88514 | -80.03448 | 41 ft | 0 kts | 12° |
| 2026-04-22 15:59 | 32.88515 | -80.03448 | 41 ft | 1 kts | 12° |
| 2026-04-22 15:59 | 32.88538 | -80.03447 | 38 ft | 4 kts | 352° |
| 2026-04-22 15:59 | 32.88566 | -80.03463 | 39 ft | 6 kts | 332° |
| 2026-04-22 16:00 | 32.88593 | -80.03463 | 41 ft | 1 kts | 22° |
| 2026-04-22 16:00 | 32.88597 | -80.03461 | 41 ft | 0 kts | 26° |
| 2026-04-22 16:00 | 32.88618 | -80.03438 | 40 ft | 7 kts | 40° |
| 2026-04-22 16:00 | 32.88658 | -80.03433 | 41 ft | 7 kts | 340° |
| 2026-04-22 16:01 | 32.88703 | -80.03477 | 39 ft | 8 kts | 306° |
| 2026-04-22 16:01 | 32.88723 | -80.03533 | 38 ft | 7 kts | 290° |
| 2026-04-22 16:01 | 32.88737 | -80.03578 | 41 ft | 5 kts | 289° |
| 2026-04-22 16:01 | 32.88747 | -80.03615 | 41 ft | 6 kts | 287° |
| 2026-04-22 16:02 | 32.88787 | -80.03640 | 41 ft | 7 kts | 7° |
| 2026-04-22 16:02 | 32.88838 | -80.03630 | 40 ft | 9 kts | 9° |
| 2026-04-22 16:02 | 32.88910 | -80.03618 | 40 ft | 11 kts | 7° |
| 2026-04-22 16:02 | 32.88981 | -80.03607 | 41 ft | 9 kts | 8° |
| 2026-04-22 16:03 | 32.89029 | -80.03572 | 39 ft | 8 kts | 50° |
| 2026-04-22 16:03 | 32.89060 | -80.03526 | 41 ft | 6 kts | 52° |
| 2026-04-22 16:03 | 32.89090 | -80.03480 | 39 ft | 9 kts | 52° |
| 2026-04-22 16:03 | 32.89136 | -80.03408 | 40 ft | 13 kts | 54° |
| 2026-04-22 16:04 | 32.89170 | -80.03346 | 38 ft | 2 kts | 57° |
| 2026-04-22 16:04 | 32.89174 | -80.03338 | 41 ft | 0 kts | 57° |
| 2026-04-22 16:08 | 32.89182 | -80.03325 | 41 ft | 7 kts | 57° |
| 2026-04-22 16:08 | 32.89207 | -80.03278 | 40 ft | 7 kts | 57° |
| 2026-04-22 16:08 | 32.89239 | -80.03251 | 39 ft | 5 kts | 356° |
| 2026-04-22 16:08 | 32.89267 | -80.03270 | 40 ft | 6 kts | 327° |
| 2026-04-22 16:09 | 32.89344 | -80.03328 | 40 ft | 42 kts | 327° |
| 2026-04-22 16:09 | 32.89804 | -80.03677 | 39 ft | 112 kts | 327° |
| 2026-04-22 16:09 | 32.90620 | -80.04297 | 44 ft | 165 kts | 327° |
| 2026-04-22 16:09 | 32.91591 | -80.05063 | 629 ft | 167 kts | 326° |
| 2026-04-22 16:10 | 32.92633 | -80.05717 | 1348 ft | 172 kts | 334° |
| 2026-04-22 16:10 | 32.93779 | -80.06260 | 1968 ft | 182 kts | 338° |
| 2026-04-22 16:10 | 32.95020 | -80.06831 | 2480 ft | 200 kts | 336° |
| 2026-04-22 16:10 | 32.96351 | -80.07467 | 2941 ft | 212 kts | 336° |
| 2026-04-22 16:11 | 32.97786 | -80.08178 | 3370 ft | 233 kts | 335° |
| 2026-04-22 16:11 | 32.99336 | -80.08976 | 3907 ft | 251 kts | 335° |
| 2026-04-22 16:11 | 33.00995 | -80.09818 | 4578 ft | 265 kts | 336° |
| 2026-04-22 16:11 | 33.02719 | -80.10643 | 5494 ft | 268 kts | 337° |
| 2026-04-22 16:12 | 33.04463 | -80.11457 | 6436 ft | 270 kts | 338° |
| 2026-04-22 16:12 | 33.06222 | -80.12278 | 7330 ft | 272 kts | 338° |
| 2026-04-22 16:12 | 33.07994 | -80.13113 | 8158 ft | 276 kts | 338° |
| 2026-04-22 16:12 | 33.09786 | -80.13964 | 8961 ft | 279 kts | 338° |
| 2026-04-22 16:13 | 33.11605 | -80.14837 | 9802 ft | 283 kts | 337° |
| 2026-04-22 16:13 | 33.13451 | -80.15732 | 10432 ft | 294 kts | 337° |
| 2026-04-22 16:13 | 33.15445 | -80.16701 | 10665 ft | 317 kts | 337° |
| 2026-04-22 16:13 | 33.17567 | -80.17735 | 10880 ft | 341 kts | 337° |
| 2026-04-22 16:14 | 33.19801 | -80.18825 | 11390 ft | 351 kts | 336° |
| 2026-04-22 16:14 | 33.22081 | -80.19934 | 12068 ft | 356 kts | 336° |
| 2026-04-22 16:14 | 33.24387 | -80.21055 | 12725 ft | 360 kts | 336° |
| 2026-04-22 16:14 | 33.26718 | -80.22192 | 13399 ft | 363 kts | 336° |
| 2026-04-22 16:15 | 33.29064 | -80.23339 | 14074 ft | 366 kts | 336° |
| 2026-04-22 16:15 | 33.31408 | -80.24523 | 14721 ft | 367 kts | 331° |
| 2026-04-22 16:15 | 33.33593 | -80.26113 | 15363 ft | 367 kts | 320° |
| 2026-04-22 16:15 | 33.35483 | -80.28158 | 15993 ft | 367 kts | 310° |
| 2026-04-22 16:16 | 33.37154 | -80.30473 | 16640 ft | 369 kts | 308° |
| 2026-04-22 16:16 | 33.38831 | -80.32809 | 17269 ft | 371 kts | 308° |
| 2026-04-22 16:16 | 33.40519 | -80.35154 | 17877 ft | 373 kts | 308° |
| 2026-04-22 16:16 | 33.42219 | -80.37513 | 18497 ft | 375 kts | 308° |
| 2026-04-22 16:17 | 33.43925 | -80.39886 | 19063 ft | 377 kts | 308° |
| 2026-04-22 16:17 | 33.45643 | -80.42279 | 19624 ft | 380 kts | 308° |
| 2026-04-22 16:17 | 33.47415 | -80.44635 | 20147 ft | 384 kts | 313° |
| 2026-04-22 16:17 | 33.49483 | -80.46699 | 20669 ft | 388 kts | 320° |
| 2026-04-22 16:18 | 33.51634 | -80.48683 | 21131 ft | 392 kts | 320° |
| 2026-04-22 16:18 | 33.53800 | -80.50689 | 21600 ft | 395 kts | 320° |
| 2026-04-22 16:18 | 33.55977 | -80.52709 | 22062 ft | 397 kts | 320° |
| 2026-04-22 16:18 | 33.58168 | -80.54741 | 22508 ft | 400 kts | 320° |
| 2026-04-22 16:19 | 33.60377 | -80.56790 | 22944 ft | 402 kts | 320° |
| 2026-04-22 16:19 | 33.62594 | -80.58852 | 23376 ft | 404 kts | 320° |
| 2026-04-22 16:19 | 33.64820 | -80.60926 | 23785 ft | 406 kts | 320° |
| 2026-04-22 16:19 | 33.67061 | -80.63012 | 24178 ft | 409 kts | 320° |
| 2026-04-22 16:20 | 33.69317 | -80.65109 | 24554 ft | 411 kts | 320° |
| 2026-04-22 16:20 | 33.71580 | -80.67218 | 24923 ft | 413 kts | 320° |
| 2026-04-22 16:20 | 33.73856 | -80.69345 | 25270 ft | 415 kts | 320° |
| 2026-04-22 16:20 | 33.76142 | -80.71482 | 25627 ft | 417 kts | 320° |
| 2026-04-22 16:21 | 33.78440 | -80.73630 | 25957 ft | 419 kts | 320° |
| 2026-04-22 16:21 | 33.80779 | -80.75815 | 26296 ft | 421 kts | 320° |
| 2026-04-22 16:21 | 33.83094 | -80.77980 | 26618 ft | 423 kts | 320° |
| 2026-04-22 16:21 | 33.85419 | -80.80156 | 26928 ft | 424 kts | 320° |
| 2026-04-22 16:22 | 33.90096 | -80.84545 | 27510 ft | 428 kts | 319° |
| 2026-04-22 16:22 | 33.92447 | -80.86758 | 27780 ft | 430 kts | 319° |
| 2026-04-22 16:22 | 33.94806 | -80.88978 | 28065 ft | 431 kts | 319° |
| 2026-04-22 16:23 | 33.99557 | -80.93441 | 28570 ft | 435 kts | 319° |
| 2026-04-22 16:23 | 34.01947 | -80.95683 | 28827 ft | 436 kts | 320° |
| 2026-04-22 16:23 | 34.04336 | -80.97929 | 29071 ft | 437 kts | 320° |
| 2026-04-22 16:24 | 34.06711 | -81.00165 | 29366 ft | 436 kts | 319° |
| 2026-04-22 16:24 | 34.11489 | -81.04677 | 30028 ft | 433 kts | 319° |
| 2026-04-22 16:24 | 34.13860 | -81.06917 | 30348 ft | 432 kts | 319° |
| 2026-04-22 16:25 | 34.16223 | -81.09150 | 30660 ft | 431 kts | 319° |
| 2026-04-22 16:25 | 34.20935 | -81.13607 | 31284 ft | 429 kts | 319° |
| 2026-04-22 16:25 | 34.23279 | -81.15829 | 31601 ft | 428 kts | 319° |
| 2026-04-22 16:26 | 34.25615 | -81.18044 | 31908 ft | 426 kts | 319° |
| 2026-04-22 16:26 | 34.27948 | -81.20258 | 32219 ft | 425 kts | 319° |
| 2026-04-22 16:26 | 34.30270 | -81.22464 | 32512 ft | 424 kts | 319° |
| 2026-04-22 16:26 | 34.32591 | -81.24669 | 32793 ft | 424 kts | 319° |
| 2026-04-22 16:27 | 34.34903 | -81.26867 | 33086 ft | 422 kts | 319° |
| 2026-04-22 16:27 | 34.37208 | -81.29061 | 33372 ft | 421 kts | 319° |
| 2026-04-22 16:27 | 34.39512 | -81.31254 | 33665 ft | 420 kts | 319° |
| 2026-04-22 16:27 | 34.41804 | -81.33439 | 33943 ft | 419 kts | 319° |
| 2026-04-22 16:28 | 34.44088 | -81.35620 | 34227 ft | 417 kts | 319° |
| 2026-04-22 16:28 | 34.46366 | -81.37794 | 34509 ft | 417 kts | 319° |
| 2026-04-22 16:28 | 34.48674 | -81.39997 | 34746 ft | 417 kts | 319° |
| 2026-04-22 16:28 | 34.50949 | -81.42169 | 34981 ft | 416 kts | 319° |
| 2026-04-22 16:29 | 34.53222 | -81.44343 | 35206 ft | 416 kts | 319° |
| 2026-04-22 16:29 | 34.55497 | -81.46519 | 35421 ft | 417 kts | 319° |
| 2026-04-22 16:29 | 34.57768 | -81.48694 | 35634 ft | 416 kts | 319° |
| 2026-04-22 16:29 | 34.60040 | -81.50871 | 35833 ft | 416 kts | 319° |
| 2026-04-22 16:30 | 34.61544 | -81.52314 | 35964 ft | 416 kts | 319° |
| 2026-04-22 16:30 | 34.64581 | -81.55229 | 36216 ft | 416 kts | 320° |
| 2026-04-22 16:30 | 34.69142 | -81.59610 | 36312 ft | 420 kts | 320° |
| 2026-04-22 16:31 | 34.73721 | -81.64018 | 36303 ft | 421 kts | 320° |
| 2026-04-22 16:31 | 34.78307 | -81.68442 | 36299 ft | 420 kts | 320° |
| 2026-04-22 16:32 | 34.82887 | -81.72853 | 36293 ft | 420 kts | 320° |
| 2026-04-22 16:32 | 34.87470 | -81.77276 | 36283 ft | 420 kts | 320° |
| 2026-04-22 16:33 | 34.92047 | -81.81713 | 36281 ft | 420 kts | 320° |
| 2026-04-22 16:33 | 34.96626 | -81.86153 | 36276 ft | 421 kts | 320° |
| 2026-04-22 16:34 | 35.01201 | -81.90593 | 36273 ft | 421 kts | 320° |
| 2026-04-22 16:34 | 35.06182 | -81.94324 | 36271 ft | 423 kts | 333° |
| 2026-04-22 16:35 | 35.11510 | -81.97353 | 36269 ft | 423 kts | 333° |
| 2026-04-22 16:35 | 35.16877 | -82.00412 | 36270 ft | 422 kts | 333° |
| 2026-04-22 16:36 | 35.22163 | -82.03445 | 36268 ft | 423 kts | 334° |
| 2026-04-22 16:36 | 35.27519 | -82.06518 | 36264 ft | 423 kts | 334° |
| 2026-04-22 16:37 | 35.32846 | -82.09572 | 36267 ft | 422 kts | 334° |
| 2026-04-22 16:37 | 35.38161 | -82.12629 | 36268 ft | 422 kts | 334° |
| 2026-04-22 16:38 | 35.43476 | -82.15698 | 36266 ft | 422 kts | 334° |
| 2026-04-22 16:38 | 35.48527 | -82.18608 | 36267 ft | 422 kts | 334° |
| 2026-04-22 16:39 | 35.53826 | -82.21668 | 36264 ft | 422 kts | 334° |
| 2026-04-22 16:39 | 35.59130 | -82.24741 | 36266 ft | 421 kts | 334° |
| 2026-04-22 16:40 | 35.64426 | -82.27818 | 36267 ft | 421 kts | 334° |
| 2026-04-22 16:41 | 35.72374 | -82.32430 | 36275 ft | 421 kts | 334° |
| 2026-04-22 16:41 | 35.77673 | -82.35510 | 36279 ft | 421 kts | 334° |
| 2026-04-22 16:42 | 35.82961 | -82.38590 | 36277 ft | 421 kts | 334° |
| 2026-04-22 16:42 | 35.87392 | -82.41168 | 36277 ft | 420 kts | 334° |
| 2026-04-22 16:43 | 35.92681 | -82.44257 | 36277 ft | 420 kts | 334° |
| 2026-04-22 16:43 | 35.97962 | -82.47355 | 36276 ft | 420 kts | 334° |
| 2026-04-22 16:44 | 36.03242 | -82.50452 | 36277 ft | 420 kts | 334° |
| 2026-04-22 16:44 | 36.08522 | -82.53547 | 36280 ft | 420 kts | 334° |
| 2026-04-22 16:45 | 36.13788 | -82.56640 | 36278 ft | 419 kts | 334° |
| 2026-04-22 16:45 | 36.19059 | -82.59742 | 36277 ft | 419 kts | 334° |
| 2026-04-22 16:46 | 36.24321 | -82.62850 | 36276 ft | 419 kts | 334° |
| 2026-04-22 16:46 | 36.29584 | -82.65954 | 36278 ft | 419 kts | 334° |
| 2026-04-22 16:47 | 36.34879 | -82.69076 | 36279 ft | 418 kts | 335° |
| 2026-04-22 16:47 | 36.40132 | -82.72179 | 36279 ft | 418 kts | 334° |
| 2026-04-22 16:48 | 36.45379 | -82.75294 | 36277 ft | 418 kts | 334° |
| 2026-04-22 16:48 | 36.50626 | -82.78419 | 36279 ft | 418 kts | 334° |
| 2026-04-22 16:49 | 36.55867 | -82.81543 | 36277 ft | 418 kts | 334° |
| 2026-04-22 16:49 | 36.61106 | -82.84665 | 36279 ft | 417 kts | 335° |
| 2026-04-22 16:50 | 36.66345 | -82.87785 | 36279 ft | 417 kts | 334° |
| 2026-04-22 16:50 | 36.71579 | -82.90909 | 36277 ft | 417 kts | 334° |
| 2026-04-22 16:51 | 36.76808 | -82.94031 | 36275 ft | 416 kts | 334° |
| 2026-04-22 16:51 | 36.82023 | -82.97163 | 36272 ft | 416 kts | 334° |
| 2026-04-22 16:52 | 36.87243 | -83.00306 | 36273 ft | 417 kts | 334° |
| 2026-04-22 16:52 | 36.92357 | -83.03708 | 36272 ft | 416 kts | 330° |
| 2026-04-22 16:53 | 36.97347 | -83.07396 | 36270 ft | 416 kts | 330° |
| 2026-04-22 16:53 | 37.02317 | -83.11085 | 36269 ft | 415 kts | 330° |
| 2026-04-22 16:54 | 37.07325 | -83.14704 | 36266 ft | 415 kts | 331° |
| 2026-04-22 16:54 | 37.12375 | -83.18321 | 36258 ft | 415 kts | 331° |
| 2026-04-22 16:55 | 37.17386 | -83.21920 | 36257 ft | 415 kts | 330° |
| 2026-04-22 16:55 | 37.22379 | -83.25531 | 36254 ft | 414 kts | 331° |
| 2026-04-22 16:56 | 37.27367 | -83.29148 | 36251 ft | 414 kts | 330° |
| 2026-04-22 16:56 | 37.32345 | -83.32772 | 36247 ft | 413 kts | 330° |
| 2026-04-22 16:57 | 37.37327 | -83.36390 | 36246 ft | 413 kts | 330° |
| 2026-04-22 16:57 | 37.42303 | -83.40007 | 36246 ft | 413 kts | 331° |
| 2026-04-22 16:58 | 37.46437 | -83.43014 | 36249 ft | 413 kts | 330° |
| 2026-04-22 16:58 | 37.52252 | -83.47250 | 36249 ft | 412 kts | 331° |
| 2026-04-22 16:59 | 37.57205 | -83.50866 | 36248 ft | 412 kts | 330° |
| 2026-04-22 16:59 | 37.62160 | -83.54501 | 36244 ft | 412 kts | 330° |
| 2026-04-22 17:00 | 37.67109 | -83.58132 | 36245 ft | 411 kts | 330° |
| 2026-04-22 17:00 | 37.74527 | -83.63574 | 36242 ft | 411 kts | 331° |
| 2026-04-22 17:01 | 37.79502 | -83.67231 | 36240 ft | 411 kts | 330° |
| 2026-04-22 17:01 | 37.84435 | -83.70878 | 36235 ft | 411 kts | 330° |
| 2026-04-22 17:02 | 37.89365 | -83.74523 | 36233 ft | 410 kts | 330° |
| 2026-04-22 17:02 | 37.94293 | -83.78161 | 36229 ft | 410 kts | 330° |
| 2026-04-22 17:03 | 37.99212 | -83.81807 | 36224 ft | 410 kts | 330° |
| 2026-04-22 17:03 | 38.04130 | -83.85461 | 36222 ft | 409 kts | 330° |
| 2026-04-22 17:04 | 38.09043 | -83.89110 | 36214 ft | 409 kts | 330° |
| 2026-04-22 17:04 | 38.13953 | -83.92756 | 36214 ft | 409 kts | 330° |
| 2026-04-22 17:05 | 38.18859 | -83.96407 | 36210 ft | 409 kts | 330° |
| 2026-04-22 17:05 | 38.23770 | -84.00072 | 36208 ft | 409 kts | 330° |
| 2026-04-22 17:06 | 38.28673 | -84.03735 | 36205 ft | 409 kts | 330° |
| 2026-04-22 17:06 | 38.33575 | -84.07407 | 36203 ft | 409 kts | 330° |
| 2026-04-22 17:07 | 38.38469 | -84.11084 | 36200 ft | 408 kts | 330° |
| 2026-04-22 17:07 | 38.43366 | -84.14767 | 36195 ft | 408 kts | 330° |
| 2026-04-22 17:08 | 38.48257 | -84.18448 | 36189 ft | 408 kts | 330° |
| 2026-04-22 17:08 | 38.53176 | -84.22159 | 36183 ft | 408 kts | 330° |
| 2026-04-22 17:09 | 38.58059 | -84.25848 | 36181 ft | 408 kts | 330° |
| 2026-04-22 17:09 | 38.62941 | -84.29535 | 36175 ft | 408 kts | 330° |
| 2026-04-22 17:10 | 38.67638 | -84.33606 | 36172 ft | 408 kts | 325° |
| 2026-04-22 17:10 | 38.72154 | -84.37923 | 36167 ft | 408 kts | 325° |
| 2026-04-22 17:11 | 38.76736 | -84.42301 | 36170 ft | 408 kts | 325° |
| 2026-04-22 17:11 | 38.81277 | -84.46646 | 36169 ft | 407 kts | 325° |
| 2026-04-22 17:12 | 38.85817 | -84.51002 | 36164 ft | 407 kts | 325° |
| 2026-04-22 17:12 | 38.90342 | -84.55344 | 36163 ft | 406 kts | 325° |
| 2026-04-22 17:13 | 38.94872 | -84.59700 | 36161 ft | 406 kts | 324° |
| 2026-04-22 17:13 | 38.99395 | -84.64055 | 36156 ft | 406 kts | 324° |
| 2026-04-22 17:14 | 39.03906 | -84.68411 | 36153 ft | 405 kts | 324° |
| 2026-04-22 17:14 | 39.07682 | -84.72056 | 36152 ft | 405 kts | 324° |
| 2026-04-22 17:15 | 39.12181 | -84.76411 | 36151 ft | 405 kts | 324° |
| 2026-04-22 17:15 | 39.16684 | -84.80780 | 36145 ft | 405 kts | 324° |
| 2026-04-22 17:16 | 39.21173 | -84.85147 | 36131 ft | 404 kts | 324° |
| 2026-04-22 17:16 | 39.25666 | -84.89512 | 36132 ft | 404 kts | 324° |
| 2026-04-22 17:17 | 39.30154 | -84.93887 | 36128 ft | 404 kts | 324° |
| 2026-04-22 17:17 | 39.34640 | -84.98267 | 36123 ft | 404 kts | 324° |
| 2026-04-22 17:18 | 39.39147 | -85.02671 | 36124 ft | 404 kts | 324° |
| 2026-04-22 17:18 | 39.43605 | -85.07029 | 36122 ft | 404 kts | 324° |
| 2026-04-22 17:19 | 39.52594 | -85.15841 | 36122 ft | 404 kts | 324° |
| 2026-04-22 17:20 | 39.61542 | -85.24658 | 36115 ft | 404 kts | 324° |
| 2026-04-22 17:21 | 39.68261 | -85.31282 | 36110 ft | 405 kts | 324° |
| 2026-04-22 17:22 | 39.74958 | -85.37926 | 36105 ft | 404 kts | 324° |
| 2026-04-22 17:23 | 39.81679 | -85.44599 | 36098 ft | 405 kts | 324° |
| 2026-04-22 17:23 | 39.88395 | -85.51285 | 36097 ft | 405 kts | 324° |
| 2026-04-22 17:24 | 39.92868 | -85.55743 | 36096 ft | 405 kts | 324° |
| 2026-04-22 17:24 | 39.97338 | -85.60205 | 36094 ft | 404 kts | 324° |
| 2026-04-22 17:25 | 40.01798 | -85.64666 | 36098 ft | 404 kts | 324° |
| 2026-04-22 17:25 | 40.06260 | -85.69131 | 36101 ft | 404 kts | 324° |
| 2026-04-22 17:26 | 40.10742 | -85.73629 | 36103 ft | 403 kts | 324° |
| 2026-04-22 17:26 | 40.15184 | -85.78108 | 36103 ft | 403 kts | 324° |
| 2026-04-22 17:27 | 40.19628 | -85.82583 | 36103 ft | 403 kts | 324° |
| 2026-04-22 17:27 | 40.24064 | -85.87062 | 36099 ft | 403 kts | 324° |
| 2026-04-22 17:28 | 40.28501 | -85.91547 | 36095 ft | 403 kts | 324° |
| 2026-04-22 17:28 | 40.32938 | -85.96040 | 36093 ft | 403 kts | 324° |
| 2026-04-22 17:29 | 40.37374 | -86.00543 | 36091 ft | 403 kts | 323° |
| 2026-04-22 17:29 | 40.41805 | -86.05052 | 36087 ft | 403 kts | 323° |
| 2026-04-22 17:30 | 40.46240 | -86.09559 | 36081 ft | 404 kts | 323° |
| 2026-04-22 17:30 | 40.50676 | -86.14085 | 36077 ft | 403 kts | 323° |
| 2026-04-22 17:31 | 40.55108 | -86.18611 | 36075 ft | 404 kts | 323° |
| 2026-04-22 17:31 | 40.59544 | -86.23143 | 36070 ft | 404 kts | 323° |
| 2026-04-22 17:32 | 40.63973 | -86.27695 | 36063 ft | 404 kts | 323° |
| 2026-04-22 17:32 | 40.68404 | -86.32246 | 36063 ft | 404 kts | 323° |
| 2026-04-22 17:33 | 40.72861 | -86.36824 | 36068 ft | 404 kts | 323° |
| 2026-04-22 17:33 | 40.77288 | -86.41377 | 36069 ft | 403 kts | 323° |
| 2026-04-22 17:34 | 40.81710 | -86.45937 | 36072 ft | 403 kts | 323° |
| 2026-04-22 17:34 | 40.86125 | -86.50499 | 36070 ft | 403 kts | 323° |
| 2026-04-22 17:35 | 40.90530 | -86.55066 | 36065 ft | 402 kts | 323° |
| 2026-04-22 17:35 | 40.94936 | -86.59636 | 36063 ft | 402 kts | 323° |
| 2026-04-22 17:36 | 40.99340 | -86.64207 | 36066 ft | 402 kts | 323° |
| 2026-04-22 17:36 | 41.03738 | -86.68796 | 36054 ft | 402 kts | 323° |
| 2026-04-22 17:37 | 41.08143 | -86.73378 | 36058 ft | 402 kts | 323° |
| 2026-04-22 17:37 | 41.12538 | -86.77969 | 36059 ft | 403 kts | 322° |
| 2026-04-22 17:38 | 41.16931 | -86.82574 | 36052 ft | 402 kts | 322° |
| 2026-04-22 17:38 | 41.21328 | -86.87180 | 36052 ft | 402 kts | 322° |
| 2026-04-22 17:39 | 41.25714 | -86.91797 | 36055 ft | 403 kts | 322° |
| 2026-04-22 17:40 | 41.32300 | -86.98728 | 36049 ft | 402 kts | 322° |
| 2026-04-22 17:40 | 41.36694 | -87.03346 | 36055 ft | 403 kts | 322° |
| 2026-04-22 17:41 | 41.41083 | -87.07980 | 36059 ft | 403 kts | 322° |
| 2026-04-22 17:41 | 41.45499 | -87.12669 | 36048 ft | 403 kts | 322° |
| 2026-04-22 17:42 | 41.49656 | -87.17079 | 36048 ft | 403 kts | 322° |
| 2026-04-22 17:42 | 41.53302 | -87.20950 | 36058 ft | 403 kts | 322° |
| 2026-04-22 17:43 | 41.58427 | -87.26407 | 36053 ft | 403 kts | 322° |
| 2026-04-22 17:43 | 41.62800 | -87.31072 | 36057 ft | 403 kts | 322° |
| 2026-04-22 17:44 | 41.67191 | -87.35762 | 36055 ft | 403 kts | 322° |
| 2026-04-22 17:44 | 41.71574 | -87.40446 | 36056 ft | 403 kts | 322° |
| 2026-04-22 17:45 | 41.75954 | -87.45144 | 36060 ft | 404 kts | 322° |
| 2026-04-22 17:45 | 41.80343 | -87.49845 | 36060 ft | 404 kts | 322° |
| 2026-04-22 17:46 | 41.84718 | -87.54553 | 36058 ft | 404 kts | 321° |
| 2026-04-22 17:46 | 41.89094 | -87.59271 | 36054 ft | 404 kts | 321° |
| 2026-04-22 17:47 | 41.93471 | -87.63996 | 36056 ft | 404 kts | 321° |
| 2026-04-22 17:47 | 41.97137 | -87.67970 | 36049 ft | 404 kts | 321° |
| 2026-04-22 17:48 | 42.01504 | -87.72709 | 36049 ft | 404 kts | 321° |
| 2026-04-22 17:48 | 42.05881 | -87.77445 | 36050 ft | 403 kts | 321° |
| 2026-04-22 17:49 | 42.10254 | -87.82185 | 36051 ft | 404 kts | 321° |
| 2026-04-22 17:49 | 42.14623 | -87.86931 | 36062 ft | 404 kts | 321° |
| 2026-04-22 17:50 | 42.18989 | -87.91704 | 36052 ft | 404 kts | 321° |
| 2026-04-22 17:50 | 42.23199 | -87.96704 | 36053 ft | 404 kts | 313° |
| 2026-04-22 17:51 | 42.26999 | -88.02307 | 36052 ft | 404 kts | 314° |
| 2026-04-22 17:51 | 42.30804 | -88.07898 | 36049 ft | 404 kts | 313° |
| 2026-04-22 17:52 | 42.34605 | -88.13505 | 36047 ft | 404 kts | 313° |
| 2026-04-22 17:52 | 42.38402 | -88.19112 | 36050 ft | 404 kts | 314° |
| 2026-04-22 17:53 | 42.42193 | -88.24728 | 36046 ft | 404 kts | 313° |
| 2026-04-22 17:53 | 42.45987 | -88.30360 | 36049 ft | 404 kts | 313° |
| 2026-04-22 17:54 | 42.49804 | -88.36034 | 36050 ft | 404 kts | 313° |
| 2026-04-22 17:54 | 42.53585 | -88.41677 | 36051 ft | 405 kts | 313° |
| 2026-04-22 17:55 | 42.57372 | -88.47328 | 36055 ft | 405 kts | 313° |
| 2026-04-22 17:55 | 42.61156 | -88.52984 | 36056 ft | 405 kts | 313° |
| 2026-04-22 17:56 | 42.64930 | -88.58642 | 36061 ft | 404 kts | 313° |
| 2026-04-22 17:56 | 42.68706 | -88.64315 | 36062 ft | 404 kts | 313° |
| 2026-04-22 17:57 | 42.72480 | -88.69981 | 36066 ft | 404 kts | 313° |
| 2026-04-22 17:57 | 42.76244 | -88.75655 | 36063 ft | 404 kts | 313° |
| 2026-04-22 17:58 | 42.80001 | -88.81338 | 36066 ft | 404 kts | 313° |
| 2026-04-22 17:58 | 42.83760 | -88.87027 | 36063 ft | 404 kts | 313° |
| 2026-04-22 17:59 | 42.87511 | -88.92717 | 36061 ft | 404 kts | 312° |
| 2026-04-22 17:59 | 42.91260 | -88.98419 | 36061 ft | 404 kts | 312° |
| 2026-04-22 18:00 | 42.94401 | -89.03197 | 36058 ft | 404 kts | 312° |
| 2026-04-22 18:00 | 42.98756 | -89.09832 | 36057 ft | 404 kts | 312° |
| 2026-04-22 18:01 | 43.02496 | -89.15553 | 36064 ft | 404 kts | 312° |
| 2026-04-22 18:01 | 43.06235 | -89.21280 | 36058 ft | 404 kts | 312° |
| 2026-04-22 18:02 | 43.09971 | -89.27019 | 36058 ft | 404 kts | 312° |
| 2026-04-22 18:02 | 43.13736 | -89.32789 | 36057 ft | 404 kts | 314° |
| 2026-04-22 18:03 | 43.18068 | -89.37668 | 36062 ft | 404 kts | 322° |
| 2026-04-22 18:03 | 43.22546 | -89.42302 | 36057 ft | 404 kts | 322° |
| 2026-04-22 18:04 | 43.27027 | -89.46960 | 36056 ft | 404 kts | 322° |
| 2026-04-22 18:04 | 43.31508 | -89.51629 | 36057 ft | 404 kts | 322° |
| 2026-04-22 18:05 | 43.35978 | -89.56300 | 36061 ft | 404 kts | 321° |
| 2026-04-22 18:05 | 43.40443 | -89.60977 | 36064 ft | 404 kts | 321° |
| 2026-04-22 18:06 | 43.44910 | -89.65657 | 36065 ft | 403 kts | 321° |
| 2026-04-22 18:06 | 43.49372 | -89.70345 | 36067 ft | 403 kts | 321° |
| 2026-04-22 18:07 | 43.53837 | -89.75043 | 36067 ft | 404 kts | 321° |
| 2026-04-22 18:07 | 43.57874 | -89.80370 | 36069 ft | 402 kts | 313° |
| 2026-04-22 18:08 | 43.61735 | -89.85974 | 36066 ft | 402 kts | 313° |
| 2026-04-22 18:08 | 43.65584 | -89.91575 | 36071 ft | 402 kts | 313° |
| 2026-04-22 18:09 | 43.69431 | -89.97172 | 36063 ft | 401 kts | 313° |
| 2026-04-22 18:09 | 43.73271 | -90.02755 | 36060 ft | 401 kts | 313° |
| 2026-04-22 18:10 | 43.77132 | -90.08381 | 36054 ft | 400 kts | 313° |
| 2026-04-22 18:10 | 43.80955 | -90.13990 | 36050 ft | 400 kts | 313° |
| 2026-04-22 18:11 | 43.84763 | -90.19588 | 36053 ft | 399 kts | 313° |
| 2026-04-22 18:11 | 43.88572 | -90.25189 | 36037 ft | 400 kts | 313° |
| 2026-04-22 18:12 | 43.92390 | -90.30799 | 36023 ft | 400 kts | 313° |
| 2026-04-22 18:12 | 43.95546 | -90.35451 | 36009 ft | 400 kts | 313° |
| 2026-04-22 18:13 | 44.00016 | -90.42048 | 36003 ft | 400 kts | 313° |
| 2026-04-22 18:13 | 44.03822 | -90.47690 | 36006 ft | 400 kts | 313° |
| 2026-04-22 18:14 | 44.07622 | -90.53329 | 36009 ft | 400 kts | 313° |
| 2026-04-22 18:14 | 44.11427 | -90.58982 | 36013 ft | 400 kts | 313° |
| 2026-04-22 18:15 | 44.15216 | -90.64640 | 36014 ft | 400 kts | 313° |
| 2026-04-22 18:15 | 44.19008 | -90.70305 | 36016 ft | 400 kts | 312° |
| 2026-04-22 18:16 | 44.22794 | -90.75971 | 36014 ft | 399 kts | 312° |
| 2026-04-22 18:16 | 44.26607 | -90.81685 | 36015 ft | 400 kts | 312° |
| 2026-04-22 18:17 | 44.30390 | -90.87367 | 36016 ft | 400 kts | 312° |
| 2026-04-22 18:17 | 44.34175 | -90.93052 | 36016 ft | 400 kts | 312° |
| 2026-04-22 18:18 | 44.37958 | -90.98759 | 36013 ft | 400 kts | 312° |
| 2026-04-22 18:18 | 44.41738 | -91.04471 | 36012 ft | 400 kts | 312° |
| 2026-04-22 18:19 | 44.45515 | -91.10191 | 36012 ft | 400 kts | 312° |
| 2026-04-22 18:19 | 44.49297 | -91.15924 | 36007 ft | 401 kts | 312° |
| 2026-04-22 18:20 | 44.52469 | -91.20748 | 35673 ft | 404 kts | 312° |
| 2026-04-22 18:20 | 44.54364 | -91.23637 | 35168 ft | 403 kts | 311° |
| 2026-04-22 18:20 | 44.56260 | -91.26535 | 34670 ft | 404 kts | 311° |
| 2026-04-22 18:20 | 44.58162 | -91.29445 | 34166 ft | 405 kts | 312° |
| 2026-04-22 18:21 | 44.60068 | -91.32366 | 33662 ft | 407 kts | 310° |
| 2026-04-22 18:21 | 44.61766 | -91.35551 | 33172 ft | 409 kts | 301° |
| 2026-04-22 18:21 | 44.63045 | -91.39127 | 32662 ft | 412 kts | 293° |
| 2026-04-22 18:21 | 44.64115 | -91.42873 | 32163 ft | 415 kts | 293° |
| 2026-04-22 18:22 | 44.65197 | -91.46639 | 31653 ft | 417 kts | 293° |
| 2026-04-22 18:22 | 44.66287 | -91.50415 | 31164 ft | 419 kts | 293° |
| 2026-04-22 18:22 | 44.67386 | -91.54216 | 30662 ft | 422 kts | 293° |
| 2026-04-22 18:22 | 44.68487 | -91.58048 | 30159 ft | 424 kts | 293° |
| 2026-04-22 18:23 | 44.69588 | -91.61902 | 29656 ft | 426 kts | 293° |
| 2026-04-22 18:23 | 44.70697 | -91.65778 | 29154 ft | 428 kts | 293° |
| 2026-04-22 18:23 | 44.71800 | -91.69631 | 28650 ft | 421 kts | 293° |
| 2026-04-22 18:24 | 44.73942 | -91.77149 | 27453 ft | 409 kts | 293° |
| 2026-04-22 18:24 | 44.74987 | -91.80838 | 26852 ft | 404 kts | 293° |
| 2026-04-22 18:24 | 44.77031 | -91.88094 | 25667 ft | 394 kts | 293° |
| 2026-04-22 18:25 | 44.78021 | -91.91669 | 25070 ft | 390 kts | 293° |
| 2026-04-22 18:25 | 44.78989 | -91.95226 | 24468 ft | 387 kts | 293° |
| 2026-04-22 18:25 | 44.79942 | -91.98758 | 23867 ft | 384 kts | 292° |
| 2026-04-22 18:26 | 44.81823 | -92.05745 | 22671 ft | 380 kts | 292° |
| 2026-04-22 18:26 | 44.82757 | -92.09215 | 22063 ft | 378 kts | 292° |
| 2026-04-22 18:26 | 44.83688 | -92.12672 | 21458 ft | 377 kts | 292° |
| 2026-04-22 18:26 | 44.84630 | -92.16164 | 20853 ft | 377 kts | 291° |
| 2026-04-22 18:27 | 44.85310 | -92.19680 | 20254 ft | 378 kts | 281° |
| 2026-04-22 18:27 | 44.85583 | -92.23414 | 19646 ft | 378 kts | 277° |
| 2026-04-22 18:27 | 44.85800 | -92.27100 | 19044 ft | 378 kts | 276° |
| 2026-04-22 18:27 | 44.86019 | -92.30797 | 18440 ft | 377 kts | 276° |
| 2026-04-22 18:28 | 44.86234 | -92.34471 | 17838 ft | 377 kts | 276° |
| 2026-04-22 18:28 | 44.86427 | -92.38147 | 17228 ft | 376 kts | 276° |
| 2026-04-22 18:28 | 44.86604 | -92.41819 | 16632 ft | 375 kts | 275° |
| 2026-04-22 18:28 | 44.86773 | -92.45474 | 16033 ft | 373 kts | 275° |
| 2026-04-22 18:29 | 44.86928 | -92.49120 | 15431 ft | 373 kts | 274° |
| 2026-04-22 18:29 | 44.86974 | -92.52774 | 14824 ft | 372 kts | 271° |
| 2026-04-22 18:29 | 44.86933 | -92.56412 | 14226 ft | 371 kts | 269° |
| 2026-04-22 18:29 | 44.86849 | -92.60042 | 13638 ft | 370 kts | 269° |
| 2026-04-22 18:30 | 44.86750 | -92.63652 | 13033 ft | 367 kts | 269° |
| 2026-04-22 18:30 | 44.86587 | -92.70682 | 11825 ft | 343 kts | 269° |
| 2026-04-22 18:30 | 44.86530 | -92.73972 | 11235 ft | 328 kts | 269° |
| 2026-04-22 18:31 | 44.86482 | -92.77086 | 10965 ft | 306 kts | 268° |
| 2026-04-22 18:31 | 44.86405 | -92.79994 | 10712 ft | 288 kts | 263° |
| 2026-04-22 18:31 | 44.86118 | -92.82749 | 10464 ft | 283 kts | 261° |
| 2026-04-22 18:31 | 44.85818 | -92.85489 | 10213 ft | 282 kts | 260° |
| 2026-04-22 18:32 | 44.85521 | -92.88212 | 9956 ft | 281 kts | 260° |
| 2026-04-22 18:32 | 44.85221 | -92.90932 | 9705 ft | 281 kts | 260° |
| 2026-04-22 18:32 | 44.84920 | -92.93658 | 9456 ft | 282 kts | 259° |
| 2026-04-22 18:32 | 44.84618 | -92.96384 | 9207 ft | 281 kts | 259° |
| 2026-04-22 18:33 | 44.84317 | -92.99098 | 9033 ft | 281 kts | 258° |
| 2026-04-22 18:33 | 44.84015 | -93.01814 | 9002 ft | 281 kts | 258° |
| 2026-04-22 18:33 | 44.83709 | -93.04532 | 8884 ft | 277 kts | 258° |
| 2026-04-22 18:33 | 44.83411 | -93.07152 | 8768 ft | 266 kts | 258° |
| 2026-04-22 18:34 | 44.83120 | -93.09685 | 8638 ft | 257 kts | 258° |
| 2026-04-22 18:34 | 44.82832 | -93.12167 | 8512 ft | 250 kts | 257° |
| 2026-04-22 18:34 | 44.82559 | -93.14528 | 8382 ft | 240 kts | 257° |
| 2026-04-22 18:34 | 44.82291 | -93.16820 | 8261 ft | 236 kts | 257° |
| 2026-04-22 18:35 | 44.82025 | -93.19090 | 8141 ft | 235 kts | 257° |
| 2026-04-22 18:35 | 44.81758 | -93.21358 | 8039 ft | 234 kts | 257° |
| 2026-04-22 18:35 | 44.81496 | -93.23607 | 8004 ft | 232 kts | 257° |
| 2026-04-22 18:35 | 44.81233 | -93.25863 | 8008 ft | 234 kts | 257° |
| 2026-04-22 18:36 | 44.80970 | -93.28122 | 8012 ft | 234 kts | 257° |
| 2026-04-22 18:36 | 44.80827 | -93.30409 | 7998 ft | 237 kts | 269° |
| 2026-04-22 18:36 | 44.81119 | -93.32708 | 8005 ft | 242 kts | 285° |
| 2026-04-22 18:36 | 44.81861 | -93.34855 | 7996 ft | 246 kts | 297° |
| 2026-04-22 18:37 | 44.82728 | -93.36929 | 7844 ft | 245 kts | 293° |
| 2026-04-22 18:37 | 44.83476 | -93.39079 | 7719 ft | 244 kts | 290° |
| 2026-04-22 18:37 | 44.83937 | -93.40516 | 7638 ft | 244 kts | 289° |
| 2026-04-22 18:37 | 44.84846 | -93.43439 | 7465 ft | 243 kts | 289° |
| 2026-04-22 18:38 | 44.85522 | -93.45626 | 7342 ft | 243 kts | 289° |
| 2026-04-22 18:38 | 44.86201 | -93.47812 | 7219 ft | 243 kts | 289° |
| 2026-04-22 18:38 | 44.86878 | -93.49979 | 7094 ft | 241 kts | 289° |
| 2026-04-22 18:39 | 44.88241 | -93.54318 | 6969 ft | 243 kts | 289° |
| 2026-04-22 18:39 | 44.88927 | -93.56496 | 6808 ft | 243 kts | 289° |
| 2026-04-22 18:39 | 44.89616 | -93.58670 | 6655 ft | 242 kts | 289° |
| 2026-04-22 18:39 | 44.90300 | -93.60826 | 6507 ft | 241 kts | 289° |
| 2026-04-22 18:40 | 44.91243 | -93.62796 | 6357 ft | 248 kts | 316° |
| 2026-04-22 18:40 | 44.92782 | -93.63905 | 6206 ft | 254 kts | 348° |
| 2026-04-22 18:40 | 44.94529 | -93.63775 | 6070 ft | 252 kts | 21° |
| 2026-04-22 18:40 | 44.96005 | -93.62483 | 5927 ft | 251 kts | 45° |
| 2026-04-22 18:41 | 44.97197 | -93.60710 | 5706 ft | 246 kts | 61° |
| 2026-04-22 18:41 | 44.97889 | -93.58551 | 5479 ft | 238 kts | 82° |
| 2026-04-22 18:41 | 44.98043 | -93.56269 | 5254 ft | 231 kts | 99° |
| 2026-04-22 18:41 | 44.97897 | -93.54026 | 5028 ft | 230 kts | 100° |
| 2026-04-22 18:42 | 44.97756 | -93.51771 | 4804 ft | 225 kts | 99° |
| 2026-04-22 18:42 | 44.97630 | -93.49650 | 4566 ft | 216 kts | 99° |
| 2026-04-22 18:42 | 44.97504 | -93.47548 | 4311 ft | 208 kts | 99° |
| 2026-04-22 18:42 | 44.97376 | -93.45517 | 4097 ft | 207 kts | 100° |
| 2026-04-22 18:43 | 44.97221 | -93.43506 | 3890 ft | 207 kts | 108° |
| 2026-04-22 18:43 | 44.96654 | -93.41666 | 3749 ft | 201 kts | 124° |
| 2026-04-22 18:43 | 44.95942 | -93.40023 | 3538 ft | 193 kts | 124° |
| 2026-04-22 18:43 | 44.95258 | -93.38433 | 3262 ft | 187 kts | 124° |
| 2026-04-22 18:44 | 44.94591 | -93.36886 | 3034 ft | 183 kts | 124° |
| 2026-04-22 18:44 | 44.93940 | -93.35377 | 2790 ft | 177 kts | 123° |
| 2026-04-22 18:44 | 44.93312 | -93.33924 | 2553 ft | 170 kts | 124° |
| 2026-04-22 18:44 | 44.92699 | -93.32543 | 2308 ft | 160 kts | 124° |
| 2026-04-22 18:45 | 44.92176 | -93.31280 | 2247 ft | 141 kts | 121° |
| 2026-04-22 18:45 | 44.91677 | -93.30131 | 1988 ft | 134 kts | 123° |
| 2026-04-22 18:45 | 44.91193 | -93.29030 | 1743 ft | 134 kts | 122° |
| 2026-04-22 18:45 | 44.90717 | -93.27908 | 1563 ft | 135 kts | 122° |
| 2026-04-22 18:46 | 44.90211 | -93.26745 | 1444 ft | 141 kts | 122° |
| 2026-04-22 18:46 | 44.89705 | -93.25553 | 1207 ft | 140 kts | 122° |
| 2026-04-22 18:46 | 44.89188 | -93.24373 | 1035 ft | 141 kts | 123° |
| 2026-04-22 18:46 | 44.88689 | -93.23201 | 867 ft | 139 kts | 123° |
| 2026-04-22 18:47 | 44.88237 | -93.22166 | 826 ft | 98 kts | 121° |
| 2026-04-22 18:47 | 44.87958 | -93.21520 | 823 ft | 64 kts | 121° |
| 2026-04-22 18:47 | 44.87773 | -93.21090 | 822 ft | 29 kts | 121° |
| 2026-04-22 18:47 | 44.87684 | -93.20884 | 826 ft | 18 kts | 121° |
| 2026-04-22 18:48 | 44.87667 | -93.20732 | 826 ft | 9 kts | 75° |
| 2026-04-22 18:48 | 44.87706 | -93.20678 | 826 ft | 8 kts | 0° |
| 2026-04-22 18:48 | 44.87741 | -93.20724 | 826 ft | 7 kts | 304° |
| 2026-04-22 18:48 | 44.87766 | -93.20780 | 826 ft | 7 kts | 300° |
| 2026-04-22 18:49 | 44.87793 | -93.20843 | 826 ft | 8 kts | 301° |
| 2026-04-22 18:49 | 44.87838 | -93.20948 | 826 ft | 14 kts | 301° |
| 2026-04-22 18:49 | 44.87888 | -93.21062 | 826 ft | 13 kts | 301° |
| 2026-04-22 18:49 | 44.87935 | -93.21170 | 821 ft | 12 kts | 301° |
| 2026-04-22 18:50 | 44.87977 | -93.21268 | 822 ft | 11 kts | 301° |
| 2026-04-22 18:50 | 44.88017 | -93.21359 | 825 ft | 11 kts | 302° |
| 2026-04-22 18:50 | 44.88054 | -93.21445 | 822 ft | 10 kts | 301° |
| 2026-04-22 18:50 | 44.88098 | -93.21546 | 825 ft | 14 kts | 301° |
| 2026-04-22 18:51 | 44.88160 | -93.21687 | 823 ft | 19 kts | 303° |
| 2026-04-22 18:51 | 44.88227 | -93.21844 | 825 ft | 12 kts | 300° |
| 2026-04-22 18:51 | 44.88271 | -93.21935 | 824 ft | 10 kts | 324° |
| 2026-04-22 18:51 | 44.88331 | -93.21913 | 825 ft | 9 kts | 38° |
| 2026-04-22 18:52 | 44.88372 | -93.21859 | 825 ft | 8 kts | 45° |
| 2026-04-22 18:52 | 44.88400 | -93.21819 | 825 ft | 10 kts | 45° |
| 2026-04-22 18:52 | 44.88456 | -93.21741 | 825 ft | 13 kts | 45° |
| 2026-04-22 18:52 | 44.88529 | -93.21637 | 826 ft | 17 kts | 46° |
| 2026-04-22 18:53 | 44.88618 | -93.21513 | 824 ft | 17 kts | 44° |
| 2026-04-22 18:53 | 44.88687 | -93.21415 | 824 ft | 13 kts | 45° |
| 2026-04-22 18:53 | 44.88739 | -93.21319 | 825 ft | 12 kts | 78° |
| 2026-04-22 18:53 | 44.88711 | -93.21212 | 825 ft | 12 kts | 121° |
| 2026-04-22 18:54 | 44.88665 | -93.21107 | 825 ft | 13 kts | 120° |
| 2026-04-22 18:54 | 44.88623 | -93.20993 | 823 ft | 12 kts | 116° |
| 2026-04-22 18:54 | 44.88587 | -93.20894 | 825 ft | 10 kts | 118° |
| 2026-04-22 18:54 | 44.88548 | -93.20846 | 825 ft | 5 kts | 173° |
| 2026-04-22 18:55 | 44.88518 | -93.20865 | 822 ft | 5 kts | 212° |
| 2026-04-22 18:55 | 44.88486 | -93.20892 | 825 ft | 4 kts | 211° |
| 2026-04-22 18:55 | 44.88475 | -93.20902 | 825 ft | 1 kts | 211° |
| 2026-04-22 18:55 | 44.88473 | -93.20903 | 825 ft | 0 kts | 211° |